Aérodrome :
LOGIN :

S'inscrire | Disclaimer

   EN    FR    IT 

 










Légende :    VFR   VFR Marginal   IFR   IFR Intensif   IFR Très Intensif
Visi : 
Plafond : 
>= 8 km
>= 3000ft
5 à 8 km
1000 à 3000 ft
1500m à 5 km
500 à 1000 ft
800 à 1500m
200 à 500 ft
< 800m
< 200 ft
Symboles :   Orages  Brouillard  Fortes neiges  Fortes précipitations  Vent > 20 kt
SIGMETs :   Divers  Orages  Givrage  Turbulence  Onde Orograph.  Cendres Volcan.







- Altitude de l'aérodrome : 466 ft


LHPA - Pápa

DERNIER METAR :
  • 231415Z 34019G29KT 9999 FEW033 SCT050 BKN083 16/07 Q1016 NOSIG RMK BLU

METARs EXPIRÉS :
  • 231347Z 34023G33KT 9999 FEW033 SCT053 BKN083 15/07 Q1016 RMK BLU
  • 231315Z 33017G27KT 9999 SCT033 BKN053 15/07 Q1016 NOSIG RMK BLU
  • 231245Z 33016G25KT 9999 SCT030 BKN050 15/07 Q1016 NOSIG RMK BLU
  • 231215Z 34014G23KT 9999 SCT030 OVC047 15/08 Q1016 NOSIG RMK BLU
  • 231145Z 35017KT 9999 SCT030 OVC047 14/07 Q1016 NOSIG RMK BLU

TAF TAF LHPA
Valide du 23 à 12h jusqu'au 24 à 12h UTC


231115Z 2312/2412 34016KT 9999 SCT030 BKN040
TEMPO 2312/2314 34018G28KT
TEMPO 2314/2317 8000 -SHRA -RA
BECMG 2316/2318 34009KT CAVOK
BECMG 2318/2321 34004KT
TEMPO 2318/2401 9999 BKN035
PROB30
TEMPO 2401/2404 VRB03KT 5000 BR NSC
BECMG 2408/2410 34011KT
Pas de NOTAMs connus pour ce terrain.
2 SIGMETs publiés pour la FIR Budapest (LHCC) :
 
Orages noyés dans la masse
LHCC SIGMET 04 VALID 231445/231600 LHBP
LHCC BUDAPEST FIR EMBD TS OBS N OF N4810 TOP FL320 MOV SSE NC=
Orages noyés dans la masse
LHCC SIGMET 03 VALID 231400/231500 LHBP
LHCC BUDAPEST FIR EMBD TS OBS NE OF LINE N4809 E01958 - N4721 E02158 TOP FL330 MOV SSE WKN=



MET'MAP, la Météo Aéronautique d'un coup d'oeil ! - Copyright ORBIFLY Décembre 2007 - Disclaimer

ORBIFLY MET'MAP TEAM :

Programmation & Développement : Alexandra Zaïnal
Conception & Développement : Baudouin d'Aumeries
Co-Programmation & Développement : Marc-Olivier Méhu
Soutien technique & logistique : Manuel Goepfert

Contact : metmap@orbifly.com




SOURCES & CREDITS :

   NOAA